KGKT

Details ICAO KGKT
Name Gatlinburg Pigeon Forge
Region United States
Timezone America/New_York (UTC-5.0)
Plans Departing 10
Arriving 26
Stats Elevation 1,014 ft / 309 m (AMSL)
Location 35.857761° -83.528702°
Runways 1
Magnetic Variation 6.042° W
Sunrise 2017-12-17 12:39:48 UTC / 2017-12-17 07:39:48 Local
Sunset 2017-12-17 22:23:37 UTC / 2017-12-17 17:23:37 Local
Advertisement - Login to hide

Runways

ID Width Length Bearing (true) Bearing (mag) Surface Threshold Offset Overrun Length
10 75 ft / 23 m 5,496 ft / 1,675 m 98.83° 104.87° Asphalt 0 ft / 0 m 0 ft / 0 m
28 75 ft / 23 m 5,496 ft / 1,675 m 278.85° 284.89° Asphalt 338 ft / 103 m 0 ft / 0 m

Map

Weather


0- 5 10 15 20 25 30 35+ Temperature / ° C

Clouds and Precipitation
Forecast for 2017-12-17 18:00 UTC. Updated 26 minutes ago

Ground ~20,000 ft ~40,000 ft Winds

METAR

KGKT 171335Z AUTO 00000KT 10SM OVC090 M01/M03 A3026 RMK A01

TAF

Not found

Frequencies

Recorded 126.87 MHz AWOS 3
Approach 132.80 MHz KNOXVILLE APP/DEP
Unicom 123.00 MHz CTAF/UNICOM
Warning: Do not use this data for real-world aviation or navigation. No guarantee of current accuracy is given.